Time;durP1;ratioP1;P1;durP2;ratioP2;P2;SDS_P1;SDS_P2;PMS_P1;PMS_P2;Temp;Humidity;BMP_temperature;BMP_pressure;BME280_temperature;BME280_humidity;BME280_pressure;Samples;Min_cycle;Max_cycle;Signal;HPM_P1;HPM_P2
2023/04/15 00:01:25;;;;;;;1.70;0.80;;;5.50;99.90;;;;;;5095088;28;20463;-66
2023/04/15 00:03:53;;;;;;;1.48;0.68;;;5.50;99.90;;;;;;5112953;28;20096;-66
2023/04/15 00:06:20;;;;;;;1.77;0.70;;;5.40;99.90;;;;;;5095460;28;20035;-66
2023/04/15 00:08:46;;;;;;;1.40;0.45;;;5.50;99.90;;;;;;5094212;28;20031;-66
2023/04/15 00:11:13;;;;;;;0.60;0.52;;;5.40;99.90;;;;;;5113324;28;20051;-66
2023/04/15 00:13:38;;;;;;;0.45;0.40;;;5.40;99.90;;;;;;5112056;28;20043;-66
2023/04/15 00:16:07;;;;;;;0.50;0.47;;;5.40;99.90;;;;;;5112729;28;20035;-67
2023/04/15 00:18:33;;;;;;;2.53;0.65;;;5.30;99.90;;;;;;5112112;28;20050;-66
2023/04/15 00:20:59;;;;;;;0.75;0.75;;;5.30;99.90;;;;;;5111735;28;20044;-66
2023/04/15 00:23:26;;;;;;;2.58;0.70;;;5.30;99.90;;;;;;5112513;28;20122;-66
2023/04/15 00:25:52;;;;;;;1.83;0.50;;;5.20;99.90;;;;;;5094689;28;20039;-67
2023/04/15 00:28:18;;;;;;;1.27;0.55;;;5.20;99.90;;;;;;5094911;28;20044;-66
2023/04/15 00:30:44;;;;;;;3.08;0.47;;;5.20;99.90;;;;;;5110991;28;20046;-67
2023/04/15 00:33:11;;;;;;;1.13;0.75;;;5.20;99.90;;;;;;5111762;28;20042;-66
2023/04/15 00:35:37;;;;;;;0.52;0.30;;;5.10;99.90;;;;;;5094408;28;20036;-67
2023/04/15 00:38:04;;;;;;;0.60;0.50;;;5.10;99.90;;;;;;5112037;28;20111;-66
2023/04/15 00:40:30;;;;;;;1.05;0.60;;;5.10;99.90;;;;;;5112648;28;20039;-66
2023/04/15 00:42:56;;;;;;;0.82;0.45;;;5.10;99.90;;;;;;5111123;28;20050;-66
2023/04/15 00:45:22;;;;;;;2.15;0.65;;;5.10;99.90;;;;;;5112222;28;20066;-66
2023/04/15 00:47:50;;;;;;;0.47;0.30;;;5.10;99.90;;;;;;5111919;28;20485;-66
2023/04/15 00:50:15;;;;;;;0.50;0.40;;;5.10;99.90;;;;;;5112472;27;20044;-66
2023/04/15 00:52:41;;;;;;;1.90;0.50;;;5.10;99.90;;;;;;5110406;28;20062;-66
2023/04/15 00:55:07;;;;;;;2.65;0.65;;;5.10;99.90;;;;;;5111292;28;20043;-66
2023/04/15 00:57:35;;;;;;;0.50;0.40;;;5.10;99.90;;;;;;5112014;28;20035;-66
2023/04/15 01:00:01;;;;;;;4.15;0.70;;;5.10;99.90;;;;;;5111274;28;20061;-66
2023/04/15 01:02:27;;;;;;;0.82;0.40;;;5.10;99.90;;;;;;5112463;28;20035;-66
2023/04/15 01:04:53;;;;;;;1.00;0.65;;;5.00;99.90;;;;;;5093382;28;20672;-66
2023/04/15 01:07:19;;;;;;;1.48;0.70;;;5.00;99.90;;;;;;5112148;28;20114;-66
2023/04/15 01:09:45;;;;;;;0.63;0.63;;;4.90;99.90;;;;;;5111829;28;20054;-67
2023/04/15 01:12:14;;;;;;;0.38;0.32;;;4.90;99.90;;;;;;5111727;28;20051;-66
2023/04/15 01:14:40;;;;;;;2.53;0.90;;;4.90;99.90;;;;;;5110945;28;20047;-66
2023/04/15 01:17:06;;;;;;;0.73;0.50;;;4.80;99.90;;;;;;5112150;28;20039;-66
2023/04/15 01:19:32;;;;;;;2.58;1.02;;;4.80;99.90;;;;;;5110021;28;20044;-66
2023/04/15 01:21:58;;;;;;;2.42;0.55;;;4.70;99.90;;;;;;5110781;28;20767;-66
2023/04/15 01:24:27;;;;;;;1.13;0.77;;;4.70;99.90;;;;;;5111664;28;20038;-66
2023/04/15 01:26:52;;;;;;;0.85;0.63;;;4.80;99.90;;;;;;5110292;28;20032;-66
2023/04/15 01:29:18;;;;;;;0.77;0.68;;;4.80;99.90;;;;;;5111667;28;20517;-66
2023/04/15 01:31:51;;;;;;;1.27;0.60;;;4.70;99.90;;;;;;5110449;28;20039;-68
2023/04/15 01:34:18;;;;;;;0.45;0.45;;;4.70;99.90;;;;;;5109746;28;20118;-66
2023/04/15 01:36:44;;;;;;;3.10;0.85;;;4.70;99.90;;;;;;5110544;28;20039;-66
2023/04/15 01:39:09;;;;;;;1.60;0.70;;;4.60;99.90;;;;;;5110535;28;20071;-66
2023/04/15 01:41:35;;;;;;;2.92;0.60;;;4.60;99.90;;;;;;5111018;28;20094;-66
2023/04/15 01:44:01;;;;;;;1.25;0.85;;;4.60;99.90;;;;;;5110571;28;20108;-66
2023/04/15 01:46:27;;;;;;;1.08;0.70;;;4.60;99.90;;;;;;5093217;28;20393;-66
2023/04/15 01:48:53;;;;;;;2.00;1.25;;;4.60;99.90;;;;;;5092645;28;20035;-66
2023/04/15 01:51:19;;;;;;;1.02;0.73;;;4.60;99.90;;;;;;5111458;28;20043;-66
2023/04/15 01:53:45;;;;;;;3.25;0.73;;;4.60;99.90;;;;;;5109693;28;20397;-66
2023/04/15 01:56:11;;;;;;;1.27;0.57;;;4.60;99.90;;;;;;5110127;28;20039;-67
2023/04/15 01:58:37;;;;;;;0.95;0.55;;;4.50;99.90;;;;;;5092771;28;20043;-67
2023/04/15 02:01:03;;;;;;;0.40;0.40;;;4.60;99.90;;;;;;5110299;28;20099;-66
2023/04/15 02:03:29;;;;;;;1.65;0.68;;;4.50;99.90;;;;;;5109857;28;20050;-66
2023/04/15 02:05:55;;;;;;;2.92;0.88;;;4.50;99.90;;;;;;5110102;28;20039;-66
2023/04/15 02:08:21;;;;;;;0.82;0.60;;;4.40;99.90;;;;;;5109312;28;20027;-66
2023/04/15 02:10:47;;;;;;;1.13;0.65;;;4.40;99.90;;;;;;5110887;28;20127;-67
2023/04/15 02:13:13;;;;;;;1.80;0.75;;;4.40;99.90;;;;;;5092816;28;20122;-66
2023/04/15 02:15:39;;;;;;;0.98;0.60;;;4.30;99.90;;;;;;5110354;28;20089;-66
2023/04/15 02:18:05;;;;;;;0.38;0.32;;;4.30;99.90;;;;;;5110918;28;20039;-66
2023/04/15 02:20:31;;;;;;;5.93;0.88;;;4.30;99.90;;;;;;5109895;28;20071;-67
2023/04/15 02:22:56;;;;;;;1.35;1.10;;;4.30;99.90;;;;;;5091916;28;20043;-66
2023/04/15 02:25:22;;;;;;;0.65;0.40;;;4.20;99.90;;;;;;5110874;28;20040;-66
2023/04/15 02:27:48;;;;;;;1.88;0.85;;;4.20;99.90;;;;;;5110947;28;20036;-67
2023/04/15 02:30:14;;;;;;;0.90;0.65;;;4.20;99.90;;;;;;5110360;28;20110;-67
2023/04/15 02:32:43;;;;;;;1.58;0.85;;;4.20;99.90;;;;;;5110851;28;20396;-67
2023/04/15 02:35:09;;;;;;;0.85;0.75;;;4.10;99.90;;;;;;5092764;28;20058;-67
2023/04/15 02:37:42;;;;;;;1.85;1.35;;;4.10;99.90;;;;;;5109108;28;20437;-66
2023/04/15 02:40:10;;;;;;;2.72;1.35;;;4.10;99.90;;;;;;5109484;28;20171;-66
2023/04/15 02:42:37;;;;;;;4.05;0.77;;;4.10;99.90;;;;;;5110149;28;20389;-67
2023/04/15 02:45:03;;;;;;;1.52;0.63;;;4.10;99.90;;;;;;5109649;28;20445;-66
2023/04/15 02:47:29;;;;;;;1.27;0.60;;;4.10;99.90;;;;;;5092734;28;20374;-67
2023/04/15 02:49:57;;;;;;;2.80;1.20;;;4.10;99.90;;;;;;5108816;28;20108;-66
2023/04/15 02:52:23;;;;;;;1.25;0.55;;;4.00;99.90;;;;;;5092353;28;20078;-66
2023/04/15 02:54:49;;;;;;;4.43;0.70;;;4.00;99.90;;;;;;5110737;28;20039;-66
2023/04/15 02:57:15;;;;;;;1.25;0.82;;;3.90;99.90;;;;;;5108649;28;20366;-66
2023/04/15 02:59:41;;;;;;;0.65;0.47;;;3.90;99.90;;;;;;5109496;28;20037;-66
2023/04/15 03:02:07;;;;;;;0.75;0.55;;;3.80;99.90;;;;;;5109568;28;20468;-66
2023/04/15 03:04:33;;;;;;;1.85;0.60;;;3.80;99.90;;;;;;5108668;28;20369;-67
2023/04/15 03:06:59;;;;;;;1.85;0.70;;;3.80;99.90;;;;;;5110747;28;20100;-66
2023/04/15 03:09:25;;;;;;;0.82;0.70;;;3.80;99.90;;;;;;5109076;28;20052;-66
2023/04/15 03:11:53;;;;;;;2.60;1.13;;;3.80;99.90;;;;;;5112191;28;20789;-67
2023/04/15 03:14:19;;;;;;;1.05;0.45;;;3.80;99.90;;;;;;5114507;28;20040;-66
2023/04/15 03:16:45;;;;;;;3.05;1.00;;;3.80;99.90;;;;;;5113010;28;20054;-66
2023/04/15 03:19:11;;;;;;;1.38;0.63;;;3.80;99.90;;;;;;5113657;28;20035;-67
2023/04/15 03:21:36;;;;;;;2.00;0.65;;;3.70;99.90;;;;;;5113094;28;20541;-67
2023/04/15 03:24:02;;;;;;;1.80;0.70;;;3.70;99.90;;;;;;5113193;28;20508;-66
2023/04/15 03:26:30;;;;;;;0.60;0.60;;;3.70;99.90;;;;;;5113593;28;20039;-66
2023/04/15 03:28:56;;;;;;;2.15;0.98;;;3.70;99.90;;;;;;5114086;28;20473;-67
2023/04/15 03:31:22;;;;;;;5.90;0.80;;;3.60;99.90;;;;;;5113106;28;20386;-66
2023/04/15 03:33:48;;;;;;;0.98;0.80;;;3.60;99.90;;;;;;5112190;28;20047;-66
2023/04/15 03:36:15;;;;;;;2.40;1.30;;;3.60;99.90;;;;;;5114203;28;20042;-67
2023/04/15 03:38:41;;;;;;;4.57;1.15;;;3.60;99.90;;;;;;5112123;28;20044;-66
2023/04/15 03:41:08;;;;;;;1.48;0.93;;;3.60;99.90;;;;;;5112780;28;20093;-66
2023/04/15 03:43:34;;;;;;;2.65;1.13;;;3.50;99.90;;;;;;5112493;28;20119;-66
2023/04/15 03:46:00;;;;;;;1.10;0.63;;;3.50;99.90;;;;;;5111817;28;20036;-66
2023/04/15 03:48:26;;;;;;;1.90;0.82;;;3.40;99.90;;;;;;5112321;28;20036;-66
2023/04/15 03:50:52;;;;;;;1.75;1.15;;;3.40;99.90;;;;;;5112439;28;20130;-66
2023/04/15 03:53:19;;;;;;;1.85;1.05;;;3.40;99.90;;;;;;5094716;28;20043;-66
2023/04/15 03:55:45;;;;;;;2.83;0.85;;;3.40;99.90;;;;;;5113533;28;20035;-66
2023/04/15 03:58:11;;;;;;;1.45;0.77;;;3.40;99.90;;;;;;5095123;28;20123;-66
2023/04/15 04:00:38;;;;;;;0.65;0.60;;;3.40;99.90;;;;;;5094836;28;20411;-66
2023/04/15 04:03:04;;;;;;;7.32;1.38;;;3.40;99.90;;;;;;5111935;28;20118;-66
2023/04/15 04:05:30;;;;;;;2.15;1.45;;;3.40;99.90;;;;;;5112366;28;20127;-66
2023/04/15 04:07:56;;;;;;;3.95;1.75;;;3.40;99.90;;;;;;5112669;28;20051;-66
2023/04/15 04:10:21;;;;;;;1.63;0.73;;;3.40;99.90;;;;;;5111881;28;20052;-66
2023/04/15 04:12:47;;;;;;;2.30;1.13;;;3.50;99.90;;;;;;5113151;28;20040;-66
2023/04/15 04:15:13;;;;;;;2.10;0.90;;;3.50;99.90;;;;;;5112672;28;20119;-66
2023/04/15 04:17:39;;;;;;;2.15;1.13;;;3.50;99.90;;;;;;5112049;28;20470;-67
2023/04/15 04:20:06;;;;;;;3.75;1.40;;;3.50;99.90;;;;;;5112068;28;20043;-66
2023/04/15 04:22:37;;;;;;;1.70;0.98;;;3.50;99.90;;;;;;5110174;28;20043;-66
2023/04/15 04:25:03;;;;;;;1.73;1.05;;;3.50;99.90;;;;;;5111852;28;20043;-66
2023/04/15 04:27:29;;;;;;;1.35;0.90;;;3.50;99.90;;;;;;5111600;28;20610;-66
2023/04/15 04:29:55;;;;;;;2.00;0.80;;;3.40;99.90;;;;;;5094030;28;20126;-66
2023/04/15 04:32:20;;;;;;;4.10;1.15;;;3.40;99.90;;;;;;5111719;28;20139;-67
2023/04/15 04:34:47;;;;;;;3.40;1.55;;;3.40;99.90;;;;;;5112534;28;20039;-67
2023/04/15 04:37:13;;;;;;;2.60;1.60;;;3.40;99.90;;;;;;5094388;28;20039;-66
2023/04/15 04:39:39;;;;;;;1.58;1.48;;;3.40;99.90;;;;;;5094647;28;20031;-67
2023/04/15 04:42:05;;;;;;;6.82;1.45;;;3.40;99.90;;;;;;5110737;28;20134;-67
2023/04/15 04:44:31;;;;;;;1.00;0.90;;;3.40;99.90;;;;;;5112524;28;20082;-66
2023/04/15 04:46:56;;;;;;;0.93;0.70;;;3.40;99.90;;;;;;5111361;28;20522;-66
2023/04/15 04:49:22;;;;;;;3.13;1.15;;;3.30;99.90;;;;;;5110608;28;20035;-66
2023/04/15 04:51:48;;;;;;;1.35;0.80;;;3.30;99.90;;;;;;5112481;28;20039;-66
2023/04/15 04:54:14;;;;;;;2.63;0.98;;;3.30;99.90;;;;;;5112598;28;20108;-66
2023/04/15 04:56:39;;;;;;;1.35;0.90;;;3.30;99.90;;;;;;5110497;28;20111;-66
2023/04/15 04:59:06;;;;;;;2.38;1.23;;;3.30;99.90;;;;;;5112353;28;20047;-66
2023/04/15 05:01:32;;;;;;;1.92;0.98;;;3.30;99.90;;;;;;5110972;28;20046;-66
2023/04/15 05:03:59;;;;;;;2.78;1.52;;;3.30;99.90;;;;;;5111892;28;20058;-66
2023/04/15 05:06:25;;;;;;;2.65;1.13;;;3.30;99.90;;;;;;5111148;28;20120;-66
2023/04/15 05:08:51;;;;;;;1.42;1.00;;;3.30;99.90;;;;;;5110636;28;20139;-66
2023/04/15 05:11:16;;;;;;;0.63;0.60;;;3.40;99.90;;;;;;5110206;28;20102;-66
2023/04/15 05:13:42;;;;;;;2.90;1.33;;;3.40;99.90;;;;;;5110685;28;20056;-66
2023/04/15 05:16:08;;;;;;;1.90;1.23;;;3.50;99.90;;;;;;5110959;28;20122;-66
2023/04/15 05:18:34;;;;;;;2.97;0.98;;;3.50;99.90;;;;;;5093118;28;20481;-66
2023/04/15 05:21:00;;;;;;;1.27;1.15;;;3.60;99.90;;;;;;5110859;28;20052;-66
2023/04/15 05:23:26;;;;;;;4.90;1.17;;;3.60;99.90;;;;;;5093734;28;20725;-66
2023/04/15 05:25:51;;;;;;;5.22;1.55;;;3.70;99.90;;;;;;5110260;28;20031;-66
2023/04/15 05:28:17;;;;;;;2.25;0.73;;;3.70;99.90;;;;;;5110590;28;20358;-66
2023/04/15 05:30:43;;;;;;;1.10;0.85;;;3.80;99.90;;;;;;5109918;28;20481;-66
2023/04/15 05:33:09;;;;;;;3.88;1.17;;;3.90;99.90;;;;;;5093398;28;20055;-66
2023/04/15 05:35:35;;;;;;;1.50;0.88;;;3.90;99.90;;;;;;5110585;28;20055;-66
2023/04/15 05:38:01;;;;;;;2.60;1.30;;;4.00;99.90;;;;;;5109645;28;20470;-66
2023/04/15 05:40:27;;;;;;;2.28;1.02;;;4.00;99.90;;;;;;5093411;28;20051;-66
2023/04/15 05:42:53;;;;;;;3.92;1.40;;;4.10;99.90;;;;;;5110162;28;20040;-66
2023/04/15 05:45:19;;;;;;;6.78;1.80;;;4.20;99.90;;;;;;5111170;28;20195;-66
2023/04/15 05:47:44;;;;;;;3.92;1.13;;;4.30;99.90;;;;;;5110130;28;20555;-66
2023/04/15 05:50:10;;;;;;;2.78;1.33;;;4.30;99.90;;;;;;5111651;28;20036;-66
2023/04/15 05:52:36;;;;;;;2.45;1.20;;;4.50;99.90;;;;;;5109584;28;20045;-66
2023/04/15 05:55:02;;;;;;;4.95;1.40;;;4.60;99.90;;;;;;5110206;28;20039;-66
2023/04/15 05:57:27;;;;;;;3.50;1.63;;;4.80;99.90;;;;;;5093293;28;20039;-66
2023/04/15 05:59:54;;;;;;;4.00;1.13;;;5.00;99.90;;;;;;5109639;28;20040;-66
2023/04/15 06:02:20;;;;;;;4.05;1.27;;;5.20;99.90;;;;;;5109808;28;20039;-66
2023/04/15 06:04:46;;;;;;;1.67;1.02;;;5.40;99.90;;;;;;5111322;28;20071;-66
2023/04/15 06:07:12;;;;;;;4.00;1.10;;;5.50;99.90;;;;;;5109364;28;20074;-66
2023/04/15 06:09:38;;;;;;;6.65;2.05;;;5.70;99.90;;;;;;5109686;28;20109;-66
2023/04/15 06:12:05;;;;;;;3.25;1.10;;;5.90;99.90;;;;;;5110032;28;20405;-66
2023/04/15 06:14:32;;;;;;;2.88;1.30;;;6.00;99.90;;;;;;5110484;28;20378;-66
2023/04/15 06:16:58;;;;;;;1.98;1.33;;;6.20;99.90;;;;;;5109904;28;20057;-66
2023/04/15 06:19:24;;;;;;;5.10;1.85;;;6.40;99.90;;;;;;5109631;28;20443;-67
2023/04/15 06:21:53;;;;;;;5.55;1.08;;;6.50;99.90;;;;;;5092056;28;20542;-66
2023/04/15 06:24:19;;;;;;;2.20;1.92;;;6.60;99.90;;;;;;5092596;28;20042;-66
2023/04/15 06:26:45;;;;;;;1.67;1.25;;;6.80;99.90;;;;;;5110359;28;20032;-66
2023/04/15 06:29:10;;;;;;;3.10;1.30;;;6.90;99.90;;;;;;5111128;28;20036;-66
2023/04/15 06:31:36;;;;;;;4.55;1.83;;;7.10;99.90;;;;;;5109632;28;20529;-66
2023/04/15 06:34:02;;;;;;;3.38;2.05;;;7.10;99.90;;;;;;5108976;28;20478;-66
2023/04/15 06:36:28;;;;;;;6.30;1.67;;;7.20;99.90;;;;;;5092526;28;20074;-66
2023/04/15 06:38:54;;;;;;;1.83;1.48;;;7.20;99.90;;;;;;5110715;28;20044;-66
2023/04/15 06:41:19;;;;;;;4.53;2.08;;;7.30;99.90;;;;;;5110232;28;20122;-66
2023/04/15 06:43:45;;;;;;;3.10;1.50;;;7.40;99.90;;;;;;5109576;28;20036;-66
2023/04/15 06:46:11;;;;;;;2.45;1.30;;;7.50;99.90;;;;;;5111746;28;20511;-66
2023/04/15 06:48:37;;;;;;;2.78;1.40;;;7.60;99.90;;;;;;5114452;28;20066;-66
2023/04/15 06:51:03;;;;;;;5.47;2.00;;;7.70;99.90;;;;;;5114919;28;20036;-66
2023/04/15 06:53:28;;;;;;;3.28;1.55;;;7.90;99.90;;;;;;5102561;28;20047;-66
2023/04/15 06:55:55;;;;;;;2.88;1.50;;;8.00;99.90;;;;;;5092285;28;20050;-66
2023/04/15 06:58:21;;;;;;;2.53;1.25;;;8.10;99.90;;;;;;5076314;28;20080;-66
2023/04/15 07:00:48;;;;;;;5.40;2.47;;;8.30;99.90;;;;;;5092221;28;20040;-66
2023/04/15 07:03:14;;;;;;;4.25;1.85;;;8.50;99.90;;;;;;5075338;28;20090;-66
2023/04/15 07:05:40;;;;;;;2.50;1.52;;;8.70;99.90;;;;;;5094296;28;20067;-66
2023/04/15 07:08:06;;;;;;;3.30;1.75;;;8.80;99.90;;;;;;5094047;28;20040;-66
2023/04/15 07:10:35;;;;;;;3.95;1.70;;;8.90;99.90;;;;;;5092054;28;20056;-66
2023/04/15 07:13:01;;;;;;;4.18;1.75;;;9.10;99.90;;;;;;5092671;28;20097;-66
2023/04/15 07:15:28;;;;;;;3.33;1.67;;;9.20;99.90;;;;;;5092928;28;20063;-66
2023/04/15 07:17:53;;;;;;;1.90;1.10;;;9.30;99.90;;;;;;5092066;28;20079;-65
2023/04/15 07:20:19;;;;;;;3.65;1.48;;;9.40;99.90;;;;;;5092755;28;20090;-66
2023/04/15 07:22:45;;;;;;;2.75;1.77;;;9.50;99.90;;;;;;5091746;28;20516;-66
2023/04/15 07:25:11;;;;;;;3.75;1.90;;;9.60;99.90;;;;;;5093974;28;20044;-66
2023/04/15 07:27:37;;;;;;;2.75;1.25;;;9.60;99.90;;;;;;5075742;28;20089;-66
2023/04/15 07:30:03;;;;;;;4.15;1.48;;;9.70;99.90;;;;;;5093388;28;20411;-66
2023/04/15 07:32:28;;;;;;;2.08;1.08;;;9.70;99.90;;;;;;5093744;28;20139;-66
2023/04/15 07:34:54;;;;;;;4.30;1.77;;;9.80;99.90;;;;;;5093551;28;20588;-66
2023/04/15 07:37:20;;;;;;;1.75;1.00;;;9.80;99.90;;;;;;5093119;28;20040;-66
2023/04/15 07:39:46;;;;;;;1.15;0.93;;;9.80;99.90;;;;;;5092246;28;20105;-66
2023/04/15 07:42:11;;;;;;;3.10;1.40;;;9.80;99.90;;;;;;5091294;28;20052;-66
2023/04/15 07:44:37;;;;;;;1.00;0.68;;;9.80;99.90;;;;;;5091653;28;20127;-67
2023/04/15 07:47:03;;;;;;;2.42;1.15;;;9.80;99.90;;;;;;5093355;28;20032;-66
2023/04/15 07:49:29;;;;;;;2.53;1.23;;;9.80;99.90;;;;;;5093191;28;20036;-66
2023/04/15 07:51:56;;;;;;;2.63;0.57;;;9.80;99.90;;;;;;5091538;28;20063;-66
2023/04/15 07:54:22;;;;;;;2.45;1.30;;;9.90;99.90;;;;;;5091888;28;20040;-65
2023/04/15 07:56:47;;;;;;;2.60;1.20;;;9.90;99.90;;;;;;5091045;28;20096;-66
2023/04/15 07:59:16;;;;;;;3.67;1.30;;;10.00;99.90;;;;;;5092353;28;20043;-66
2023/04/15 08:01:42;;;;;;;3.90;1.75;;;10.10;99.90;;;;;;5091755;28;20479;-66
2023/04/15 08:04:09;;;;;;;2.35;0.93;;;10.40;99.90;;;;;;5074821;28;20040;-66
2023/04/15 08:06:35;;;;;;;2.20;1.20;;;10.60;99.90;;;;;;5092414;28;20511;-66
2023/04/15 08:09:01;;;;;;;2.13;1.13;;;10.80;99.90;;;;;;5074801;28;20071;-65
2023/04/15 08:11:27;;;;;;;1.20;0.90;;;11.00;99.90;;;;;;5074835;28;20537;-65
2023/04/15 08:13:53;;;;;;;4.10;1.65;;;11.20;99.90;;;;;;5091046;28;20047;-66
2023/04/15 08:16:22;;;;;;;2.45;1.30;;;11.40;99.90;;;;;;5092824;28;20039;-65
2023/04/15 08:18:48;;;;;;;6.30;1.17;;;11.50;99.90;;;;;;5092042;28;20123;-65
2023/04/15 08:21:15;;;;;;;2.60;1.25;;;11.60;99.90;;;;;;5091310;28;20861;-65
2023/04/15 08:23:43;;;;;;;2.65;1.08;;;11.70;99.90;;;;;;5092862;28;20110;-65
2023/04/15 08:26:08;;;;;;;3.25;1.65;;;11.90;99.90;;;;;;5092274;28;20628;-65
2023/04/15 08:28:36;;;;;;;1.75;0.80;;;12.00;99.90;;;;;;5074772;28;20036;-66
2023/04/15 08:31:01;;;;;;;2.33;0.80;;;12.20;99.90;;;;;;5074467;28;20075;-65
2023/04/15 08:33:27;;;;;;;2.55;1.10;;;12.20;99.90;;;;;;5092017;28;20083;-65
2023/04/15 08:35:53;;;;;;;1.45;1.05;;;12.30;99.90;;;;;;5091111;28;20039;-65
2023/04/15 08:38:19;;;;;;;2.38;1.63;;;12.30;99.90;;;;;;5091132;28;20059;-65
2023/04/15 08:40:45;;;;;;;1.58;0.73;;;12.20;99.90;;;;;;5073654;28;20123;-65
2023/04/15 08:43:27;;;;;;;2.22;0.85;;;12.20;99.90;;;;;;5091035;28;20082;-66
2023/04/15 08:45:53;;;;;;;1.70;0.70;;;12.20;99.90;;;;;;5091680;28;20038;-65
2023/04/15 08:48:20;;;;;;;0.93;0.63;;;12.10;99.90;;;;;;5090153;28;20093;-65
2023/04/15 08:50:47;;;;;;;0.93;0.73;;;12.10;99.90;;;;;;5091915;28;20075;-65
2023/04/15 08:53:14;;;;;;;2.65;1.50;;;12.20;99.90;;;;;;5073947;28;20044;-65
2023/04/15 08:55:44;;;;;;;1.90;0.82;;;12.10;99.90;;;;;;5090211;28;20046;-66
2023/04/15 08:58:12;;;;;;;1.80;0.90;;;12.00;99.90;;;;;;5090735;28;20048;-65
2023/04/15 09:00:38;;;;;;;1.15;0.38;;;11.90;99.90;;;;;;5073060;28;20047;-65
2023/04/15 09:03:08;;;;;;;5.72;1.02;;;11.80;99.90;;;;;;5091704;28;20683;-66
2023/04/15 09:05:36;;;;;;;1.27;0.60;;;11.80;99.90;;;;;;5073931;28;20490;-66
2023/04/15 09:08:02;;;;;;;2.25;1.05;;;11.70;99.90;;;;;;5089858;28;20393;-65
2023/04/15 09:10:28;;;;;;;1.30;0.63;;;11.50;99.90;;;;;;5090309;28;20386;-65
2023/04/15 09:12:56;;;;;;;1.20;0.77;;;11.50;99.90;;;;;;5073853;28;20036;-65
2023/04/15 09:15:24;;;;;;;1.58;0.82;;;11.40;99.90;;;;;;5090998;28;20501;-68
2023/04/15 09:17:50;;;;;;;1.40;1.00;;;11.40;99.90;;;;;;5090572;28;20040;-65
2023/04/15 09:20:19;;;;;;;4.22;1.10;;;11.40;99.90;;;;;;5090584;28;20047;-65
2023/04/15 09:22:46;;;;;;;2.80;1.45;;;11.50;99.90;;;;;;5089526;28;20059;-66
2023/04/15 09:25:21;;;;;;;1.08;0.52;;;11.80;99.90;;;;;;5090241;28;20072;-67
2023/04/15 09:27:51;;;;;;;1.15;0.80;;;12.00;99.90;;;;;;5091386;28;20119;-66
2023/04/15 09:30:17;;;;;;;1.38;0.70;;;12.00;99.90;;;;;;5072641;28;20047;-66
2023/04/15 09:32:58;;;;;;;0.63;0.50;;;11.90;99.90;;;;;;5090351;28;20448;-66
2023/04/15 09:35:25;;;;;;;2.45;0.88;;;11.80;99.90;;;;;;5090187;28;20041;-66
2023/04/15 09:37:51;;;;;;;2.03;1.00;;;11.80;99.90;;;;;;5090744;28;20044;-65
2023/04/15 09:40:35;;;;;;;0.85;0.40;;;11.70;99.90;;;;;;5089916;28;20102;-65
2023/04/15 09:43:02;;;;;;;0.88;0.50;;;11.80;99.90;;;;;;5089191;28;20050;-65
2023/04/15 09:45:28;;;;;;;2.97;0.82;;;11.80;99.90;;;;;;5091258;28;20067;-67
2023/04/15 09:47:59;;;;;;;0.85;0.63;;;11.90;99.90;;;;;;5090057;28;20032;-66
2023/04/15 09:50:28;;;;;;;1.20;0.55;;;12.20;99.90;;;;;;5089236;28;20046;-65
2023/04/15 09:52:54;;;;;;;0.90;0.40;;;12.80;99.90;;;;;;5090888;28;20040;-66
2023/04/15 09:55:20;;;;;;;1.80;0.65;;;13.20;99.90;;;;;;5090035;28;20270;-65
2023/04/15 09:57:46;;;;;;;2.00;0.80;;;13.30;99.90;;;;;;5089258;28;20690;-66
2023/04/15 10:00:12;;;;;;;0.98;0.55;;;13.20;99.90;;;;;;5089874;28;20079;-67
2023/04/15 10:02:42;;;;;;;1.92;0.90;;;12.90;99.90;;;;;;5090951;28;20042;-65
2023/04/15 10:05:13;;;;;;;1.95;0.77;;;12.60;99.90;;;;;;5101262;28;20040;-65
2023/04/15 10:07:42;;;;;;;1.00;0.80;;;12.40;99.90;;;;;;5089718;28;20374;-65
2023/04/15 10:10:09;;;;;;;4.10;1.30;;;12.30;99.90;;;;;;5104972;28;20071;-66
2023/04/15 10:12:37;;;;;;;2.45;0.65;;;12.20;99.90;;;;;;5092216;28;20082;-66
2023/04/15 10:15:04;;;;;;;2.05;0.93;;;12.10;99.90;;;;;;5109776;28;20044;-66
2023/04/15 10:17:36;;;;;;;1.17;0.73;;;12.10;99.90;;;;;;5110034;28;20122;-66
2023/04/15 10:20:04;;;;;;;1.75;0.50;;;12.10;99.90;;;;;;5109123;28;20040;-65
2023/04/15 10:22:31;;;;;;;0.57;0.40;;;12.40;99.90;;;;;;5092730;28;20047;-66
2023/04/15 10:24:58;;;;;;;0.85;0.47;;;12.50;99.90;;;;;;5090088;28;20043;-66
2023/04/15 10:27:25;;;;;;;0.73;0.32;;;12.70;99.90;;;;;;5091469;28;20036;-67
2023/04/15 10:29:51;;;;;;;1.90;0.43;;;12.80;99.90;;;;;;5089327;28;20055;-66
2023/04/15 10:32:21;;;;;;;0.85;0.30;;;12.90;99.90;;;;;;5088676;28;20036;-66
2023/04/15 10:34:49;;;;;;;0.73;0.30;;;12.80;99.90;;;;;;5089316;28;20043;-66
2023/04/15 10:37:20;;;;;;;1.38;0.47;;;12.90;99.90;;;;;;5106411;28;20043;-66
2023/04/15 10:39:46;;;;;;;0.20;0.20;;;12.90;99.90;;;;;;5088599;28;20118;-65
2023/04/15 10:42:20;;;;;;;0.47;0.30;;;12.90;99.90;;;;;;5089262;28;20165;-67
2023/04/15 10:44:51;;;;;;;1.55;0.73;;;13.10;99.90;;;;;;5088996;28;20059;-66
2023/04/15 10:47:20;;;;;;;0.73;0.40;;;13.00;99.90;;;;;;5089970;28;20041;-65
2023/04/15 10:49:51;;;;;;;1.08;0.40;;;12.90;99.90;;;;;;5089365;28;20366;-66
2023/04/15 10:52:21;;;;;;;0.90;0.50;;;12.80;99.90;;;;;;5090585;28;20036;-65
2023/04/15 10:54:47;;;;;;;1.08;0.30;;;12.70;99.90;;;;;;5089746;28;20047;-65
2023/04/15 10:57:22;;;;;;;0.68;0.20;;;12.80;99.90;;;;;;5089200;28;20044;-65
2023/04/15 10:59:57;;;;;;;1.65;0.47;;;12.90;99.90;;;;;;5089891;28;20032;-64
2023/04/15 11:02:41;;;;;;;1.48;0.50;;;12.90;99.90;;;;;;5088807;28;20478;-65
2023/04/15 11:05:07;;;;;;;0.35;0.32;;;12.70;99.90;;;;;;5089245;28;20037;-66
2023/04/15 11:07:40;;;;;;;0.52;0.30;;;12.50;99.90;;;;;;5105369;28;20044;-65
2023/04/15 11:10:24;;;;;;;0.20;0.17;;;12.30;99.90;;;;;;5071820;28;20058;-66
2023/04/15 11:12:58;;;;;;;0.68;0.30;;;12.20;99.90;;;;;;5090160;28;20493;-66
2023/04/15 11:15:29;;;;;;;0.10;0.10;;;12.20;99.90;;;;;;5088353;28;20044;-65
2023/04/15 11:17:56;;;;;;;0.50;0.30;;;12.20;99.90;;;;;;5088735;28;20040;-64
2023/04/15 11:20:22;;;;;;;0.30;0.28;;;12.20;99.90;;;;;;5087302;28;20048;-66
2023/04/15 11:22:53;;;;;;;0.15;0.15;;;12.00;99.90;;;;;;5087474;28;20232;-65
2023/04/15 11:25:30;;;;;;;0.10;0.10;;;11.90;99.90;;;;;;5089925;28;20085;-66
2023/04/15 11:27:57;;;;;;;0.40;0.20;;;11.80;99.90;;;;;;5089092;28;20036;-65
2023/04/15 11:30:26;;;;;;;0.30;0.30;;;11.70;99.90;;;;;;5087859;28;20043;-66
2023/04/15 11:32:54;;;;;;;0.47;0.30;;;11.70;99.90;;;;;;5073905;28;20040;-66
2023/04/15 11:35:21;;;;;;;0.30;0.30;;;11.60;99.90;;;;;;5092990;28;20474;-66
2023/04/15 11:37:49;;;;;;;0.60;0.25;;;11.60;99.90;;;;;;5092211;28;20536;-65
2023/04/15 11:40:16;;;;;;;0.20;0.20;;;11.60;99.90;;;;;;5092104;28;20044;-65
2023/04/15 11:42:46;;;;;;;1.48;0.20;;;11.50;99.90;;;;;;5092750;28;20047;-66
2023/04/15 11:45:14;;;;;;;0.60;0.50;;;11.50;99.90;;;;;;5092017;28;20097;-66
2023/04/15 11:47:41;;;;;;;0.43;0.30;;;11.40;99.90;;;;;;5093378;28;20044;-66
2023/04/15 11:50:17;;;;;;;1.45;0.28;;;11.40;99.90;;;;;;5091442;28;20101;-65
2023/04/15 11:53:03;;;;;;;0.40;0.20;;;11.30;99.90;;;;;;5091879;28;20040;-65
2023/04/15 11:55:29;;;;;;;0.28;0.28;;;11.30;99.90;;;;;;5092127;28;20047;-65
2023/04/15 11:58:09;;;;;;;0.57;0.28;;;11.20;99.90;;;;;;5091326;28;20123;-66
2023/04/15 12:00:35;;;;;;;0.43;0.40;;;11.10;99.90;;;;;;5092255;28;20083;-65
2023/04/15 12:03:35;;;;;;;0.50;0.22;;;11.00;99.90;;;;;;5091532;28;20036;-65
2023/04/15 12:06:23;;;;;;;0.60;0.60;;;10.90;99.90;;;;;;5077108;28;20056;-65
2023/04/15 12:09:10;;;;;;;0.38;0.30;;;10.70;99.90;;;;;;5091533;28;20092;-66
2023/04/15 12:11:47;;;;;;;0.25;0.25;;;10.60;99.90;;;;;;5091129;28;20087;-65
2023/04/15 12:14:30;;;;;;;1.92;1.05;;;10.50;99.90;;;;;;5091675;28;20044;-66
2023/04/15 12:17:04;;;;;;;0.52;0.40;;;10.60;99.90;;;;;;5092140;28;20505;-65
2023/04/15 12:19:38;;;;;;;0.82;0.60;;;10.70;99.90;;;;;;5092824;28;20473;-65
2023/04/15 12:22:05;;;;;;;2.92;0.70;;;10.60;99.90;;;;;;5091663;28;20401;-66
2023/04/15 12:24:35;;;;;;;0.75;0.55;;;10.50;99.90;;;;;;5090903;28;20109;-66
2023/04/15 12:27:02;;;;;;;;;;;10.40;99.90;;;;;;5091780;28;20031;-66
2023/04/15 12:29:29;;;;;;;0.73;0.43;;;10.30;99.90;;;;;;5091266;28;19916;-65
2023/04/15 12:32:11;;;;;;;0.68;0.40;;;10.20;99.90;;;;;;5090796;28;20040;-66
2023/04/15 12:34:51;;;;;;;0.85;0.30;;;10.20;99.90;;;;;;5074109;28;20040;-65
2023/04/15 12:37:18;;;;;;;1.13;0.50;;;10.30;99.90;;;;;;5091125;28;20084;-65
2023/04/15 12:39:47;;;;;;;0.30;0.20;;;10.30;99.90;;;;;;5092120;28;20457;-66
2023/04/15 12:42:14;;;;;;;0.55;0.45;;;10.40;99.90;;;;;;5091076;28;20043;-66
2023/04/15 12:44:40;;;;;;;0.73;0.40;;;10.40;99.90;;;;;;5089944;28;20046;-64
2023/04/15 12:47:07;;;;;;;0.60;0.47;;;10.40;99.90;;;;;;5092175;28;20040;-65
2023/04/15 12:49:33;;;;;;;3.63;0.57;;;10.50;99.90;;;;;;5091046;28;20089;-66
2023/04/15 12:52:01;;;;;;;0.80;0.40;;;10.40;99.90;;;;;;5090346;28;20044;-66
2023/04/15 12:54:28;;;;;;;0.65;0.50;;;10.30;99.90;;;;;;5074089;28;20044;-66